createdAt,value
2023-02-03T00:01:27.861Z,101123.53
2023-02-03T00:03:55.979Z,101129.53
2023-02-03T00:06:25.474Z,101137.25
2023-02-03T00:08:55.178Z,101140.66
2023-02-03T00:11:23.345Z,101139.78
2023-02-03T00:13:51.450Z,101120.88
2023-02-03T00:16:19.619Z,101117.47
2023-02-03T00:18:47.728Z,101125.19
2023-02-03T00:21:16.305Z,101126.03
2023-02-03T00:23:45.733Z,101117.44
2023-02-03T00:26:15.676Z,101117.44
2023-02-03T00:28:44.785Z,101135.44
2023-02-03T00:31:17.456Z,101121.72
2023-02-03T00:33:47.615Z,101121.72
2023-02-03T00:36:15.783Z,101113.09
2023-02-03T00:38:45.333Z,101096.81
2023-02-03T00:41:13.434Z,101103.63
2023-02-03T00:43:41.607Z,101103.63
2023-02-03T00:46:09.824Z,101095.84
2023-02-03T00:48:37.942Z,101090.69
2023-02-03T00:51:06.718Z,101091.56
2023-02-03T00:53:35.213Z,101090.78
2023-02-03T00:56:04.858Z,101099.44
2023-02-03T00:58:33.063Z,101109.75
2023-02-03T01:01:01.223Z,101103.78
2023-02-03T01:03:29.385Z,101114.06
2023-02-03T01:05:57.555Z,101115.75
2023-02-03T01:08:26.858Z,101122.53
2023-02-03T01:10:55.166Z,101117.41
2023-02-03T01:13:24.777Z,101118.25
2023-02-03T01:15:53.137Z,101126.00
2023-02-03T01:18:21.924Z,101118.31
2023-02-03T01:20:50.261Z,101095.16
2023-02-03T01:23:18.372Z,101094.34
2023-02-03T01:25:46.486Z,101079.78
2023-02-03T01:28:14.746Z,101064.41
2023-02-03T01:30:44.351Z,101057.53
2023-02-03T01:33:13.379Z,101045.53
2023-02-03T01:35:41.433Z,101024.94
2023-02-03T01:38:12.122Z,101033.56
2023-02-03T01:40:44.542Z,101041.28
2023-02-03T01:43:12.691Z,101046.41
2023-02-03T01:45:40.873Z,101051.56
2023-02-03T01:48:10.416Z,101042.94
2023-02-03T01:50:38.702Z,101030.16
2023-02-03T01:53:09.572Z,101021.53
2023-02-03T01:55:41.262Z,101040.41
2023-02-03T01:58:11.385Z,101042.09
2023-02-03T02:00:39.539Z,101034.41
2023-02-03T02:03:07.691Z,101032.72
2023-02-03T02:05:39.981Z,101021.53
2023-02-03T02:08:08.081Z,101028.34
2023-02-03T02:10:36.423Z,101022.28
2023-02-03T02:13:04.720Z,101027.44
2023-02-03T02:15:39.669Z,101025.69
2023-02-03T02:18:38.689Z,101024.84
2023-02-03T02:21:45.823Z,101029.13
2023-02-03T02:24:53.915Z,101013.69
2023-02-03T02:28:26.074Z,101007.66
2023-02-03T02:31:19.003Z,101026.56
2023-02-03T02:33:51.264Z,101024.88
2023-02-03T02:36:25.311Z,101013.69
2023-02-03T02:38:58.616Z,101012.81
2023-02-03T02:41:31.063Z,101016.28
2023-02-03T02:44:02.008Z,101006.84
2023-02-03T02:46:34.052Z,101008.69
2023-02-03T02:49:07.871Z,101025.03
2023-02-03T02:51:36.083Z,101024.19
2023-02-03T02:54:06.677Z,101027.66
2023-02-03T02:56:35.701Z,101037.97
2023-02-03T02:59:04.928Z,101036.28
2023-02-03T03:01:33.102Z,101041.44
2023-02-03T03:04:04.992Z,101038.00
2023-02-03T03:06:37.127Z,101043.19
2023-02-03T03:09:07.219Z,101054.34
2023-02-03T03:11:38.025Z,101048.44
2023-02-03T03:14:06.394Z,101063.03
2023-02-03T03:16:36.007Z,101066.53
2023-02-03T03:19:08.025Z,101076.75
2023-02-03T03:21:39.277Z,101081.06
2023-02-03T03:24:10.498Z,101099.06
2023-02-03T03:26:42.714Z,101093.03
2023-02-03T03:29:14.827Z,101081.13
2023-02-03T03:31:43.016Z,101086.25
2023-02-03T03:34:13.103Z,101098.28
2023-02-03T03:36:43.732Z,101090.66
2023-02-03T03:39:18.700Z,101083.88
2023-02-03T03:41:55.310Z,101084.84
2023-02-03T03:44:23.571Z,101086.59
2023-02-03T03:46:56.872Z,101081.53
2023-02-03T03:49:26.383Z,101080.72
2023-02-03T03:51:57.385Z,101068.78
2023-02-03T03:54:25.696Z,101074.00
2023-02-03T03:56:58.050Z,101069.81
2023-02-03T03:59:26.926Z,101061.28
2023-02-03T04:01:55.178Z,101057.88
2023-02-03T04:04:23.343Z,101051.91
2023-02-03T04:06:54.334Z,101048.50
2023-02-03T04:09:22.472Z,101045.94
2023-02-03T04:12:02.917Z,101048.53
2023-02-03T04:14:31.539Z,101049.44
2023-02-03T04:16:59.826Z,101052.81
2023-02-03T04:19:28.115Z,101051.06
2023-02-03T04:21:57.845Z,101033.81
2023-02-03T04:24:26.391Z,101035.50
2023-02-03T04:26:54.541Z,101024.41
2023-02-03T04:29:22.676Z,101031.25
2023-02-03T04:31:50.860Z,101039.81
2023-02-03T04:34:19.034Z,101040.69
2023-02-03T04:36:47.373Z,101048.34
2023-02-03T04:39:16.795Z,101048.28
2023-02-03T04:41:44.942Z,101056.81
2023-02-03T04:44:13.321Z,101060.19
2023-02-03T04:46:41.372Z,101049.91
2023-02-03T04:49:11.609Z,101059.38
2023-02-03T04:51:39.780Z,101059.31
2023-02-03T04:54:08.047Z,101057.66
2023-02-03T04:56:37.585Z,101055.06
2023-02-03T04:59:05.719Z,101054.19
2023-02-03T05:01:33.867Z,101049.03
2023-02-03T05:04:02.040Z,101050.75
2023-02-03T05:06:32.037Z,101043.94
2023-02-03T05:09:00.188Z,101053.31
2023-02-03T05:11:28.769Z,101059.28
2023-02-03T05:13:58.660Z,101055.06
2023-02-03T05:16:26.880Z,101069.59
2023-02-03T05:18:55.042Z,101073.06
2023-02-03T05:21:23.132Z,101054.19
2023-02-03T05:23:51.260Z,101050.78
2023-02-03T05:26:19.419Z,101045.63
2023-02-03T05:28:47.523Z,101042.97
2023-02-03T05:31:17.046Z,101065.97
2023-02-03T05:33:45.184Z,101053.84
2023-02-03T05:36:13.325Z,101048.53
2023-02-03T05:38:42.402Z,101044.97
2023-02-03T05:41:29.256Z,101041.44
2023-02-03T05:43:57.334Z,101036.16
2023-02-03T05:46:26.803Z,101025.75
2023-02-03T05:48:54.988Z,101027.41
2023-02-03T05:51:23.457Z,101018.78
2023-02-03T05:53:51.558Z,101025.63
2023-02-03T05:56:19.661Z,101027.25
2023-02-03T05:58:47.752Z,101017.78
2023-02-03T06:01:15.877Z,101015.19
2023-02-03T06:03:46.443Z,101014.28
2023-02-03T06:06:14.734Z,101012.56
2023-02-03T06:08:42.837Z,100997.94
2023-02-03T06:11:11.032Z,100997.94
2023-02-03T06:13:39.215Z,101004.81
2023-02-03T06:16:07.775Z,101008.25
2023-02-03T06:18:35.916Z,101003.09
2023-02-03T06:21:06.012Z,100997.13
2023-02-03T06:23:34.313Z,100998.00
2023-02-03T06:26:02.443Z,100992.88
2023-02-03T06:28:33.450Z,100986.91
2023-02-03T06:31:01.789Z,100990.34
2023-02-03T06:33:30.019Z,100990.34
2023-02-03T06:35:58.271Z,100976.63
2023-02-03T06:38:27.779Z,100986.09
2023-02-03T06:40:55.982Z,100978.34
2023-02-03T06:43:24.097Z,100976.59
2023-02-03T06:45:52.496Z,100983.41
2023-02-03T06:48:20.665Z,100998.75
2023-02-03T06:50:48.981Z,100986.72
2023-02-03T06:53:17.234Z,100990.09
2023-02-03T06:55:47.900Z,100979.72
2023-02-03T06:58:16.168Z,100996.84
2023-02-03T07:00:44.432Z,101004.53
2023-02-03T07:03:12.552Z,101018.22
2023-02-03T07:05:40.905Z,101016.47
2023-02-03T07:08:09.091Z,101010.38
2023-02-03T07:10:37.300Z,101010.38
2023-02-03T07:13:07.455Z,101024.03
2023-02-03T07:15:35.856Z,101025.66
2023-02-03T07:18:04.640Z,101036.84
2023-02-03T07:20:33.152Z,101039.34
2023-02-03T07:23:01.392Z,101035.06
2023-02-03T07:25:29.975Z,101038.50
2023-02-03T07:27:58.139Z,101029.06
2023-02-03T07:30:28.037Z,101038.53
2023-02-03T07:32:56.380Z,101034.28
2023-02-03T07:35:25.442Z,101034.25
2023-02-03T07:37:53.624Z,101053.13
2023-02-03T07:40:22.019Z,101050.56
2023-02-03T07:42:50.505Z,101058.31
2023-02-03T07:45:19.474Z,101060.06
2023-02-03T07:47:49.046Z,101066.91
2023-02-03T07:50:17.261Z,101060.13
2023-02-03T07:52:45.471Z,101049.88
2023-02-03T07:55:13.712Z,101057.69
2023-02-03T07:57:43.613Z,101050.91
2023-02-03T08:00:14.294Z,101050.19
2023-02-03T08:02:42.612Z,101049.47
2023-02-03T08:05:12.430Z,101060.69
2023-02-03T08:07:40.715Z,101062.47
2023-02-03T08:10:10.049Z,101071.06
2023-02-03T08:12:38.215Z,101064.28
2023-02-03T08:15:08.610Z,101059.16
2023-02-03T08:17:36.796Z,101060.06
2023-02-03T08:20:06.161Z,101075.56
2023-02-03T08:22:35.671Z,101079.94
2023-02-03T08:25:03.940Z,101085.09
2023-02-03T08:27:33.071Z,101079.19
2023-02-03T08:30:01.313Z,101068.91
2023-02-03T08:32:29.549Z,101072.41
2023-02-03T08:34:57.681Z,101065.53
2023-02-03T08:37:25.985Z,101064.63
2023-02-03T08:39:55.635Z,101067.16
2023-02-03T08:42:23.933Z,101068.69
2023-02-03T08:44:52.030Z,101060.81
2023-02-03T08:47:20.216Z,101067.50
2023-02-03T08:49:48.358Z,101063.00
2023-02-03T08:52:18.823Z,101060.25
2023-02-03T08:54:47.642Z,101045.53
2023-02-03T08:57:17.199Z,101060.06
2023-02-03T08:59:45.398Z,101067.69
2023-02-03T09:02:16.364Z,101060.75
2023-02-03T09:04:44.685Z,101053.81
2023-02-03T09:07:13.341Z,101050.28
2023-02-03T09:09:41.571Z,101049.34
2023-02-03T09:12:11.671Z,101051.84
2023-02-03T09:14:41.325Z,101036.34
2023-02-03T09:17:10.361Z,101042.31
2023-02-03T09:19:38.572Z,101052.53
2023-02-03T09:22:06.912Z,101044.72
2023-02-03T09:24:35.297Z,101061.88
2023-02-03T09:27:04.182Z,101054.97
2023-02-03T09:29:32.441Z,101046.34
2023-02-03T09:32:07.071Z,101034.31
2023-02-03T09:34:35.311Z,101041.19
2023-02-03T09:37:04.216Z,101041.19
2023-02-03T09:39:32.590Z,101038.63
2023-02-03T09:42:10.124Z,101041.13
2023-02-03T09:44:42.826Z,101030.88
2023-02-03T09:47:15.743Z,101033.38
2023-02-03T09:49:47.153Z,101038.50
2023-02-03T09:52:17.580Z,101039.31
2023-02-03T09:54:50.743Z,101026.34
2023-02-03T09:57:22.433Z,101053.75
2023-02-03T09:59:50.766Z,101047.66
2023-02-03T10:02:39.903Z,101046.69
2023-02-03T10:05:14.955Z,101057.81
2023-02-03T10:07:49.260Z,101038.00
2023-02-03T10:10:22.763Z,101059.44
2023-02-03T10:13:03.528Z,101050.81
2023-02-03T10:16:19.762Z,101061.06
2023-02-03T10:18:51.892Z,101045.59
2023-02-03T10:21:24.866Z,101045.53
2023-02-03T10:23:54.983Z,101033.44
2023-02-03T10:26:24.933Z,101049.72
2023-02-03T10:28:55.682Z,101051.44
2023-02-03T10:31:27.559Z,101061.72
2023-02-03T10:34:01.532Z,101058.22
2023-02-03T10:36:39.102Z,101053.06
2023-02-03T10:39:16.697Z,101035.03
2023-02-03T10:41:44.865Z,101034.19
2023-02-03T10:44:14.452Z,101028.22
2023-02-03T10:46:43.201Z,101022.25
2023-02-03T10:49:13.385Z,101017.94
2023-02-03T10:51:44.285Z,101006.78
2023-02-03T10:54:29.245Z,101004.19
2023-02-03T10:56:59.358Z,101005.03
2023-02-03T10:59:30.722Z,101002.28
2023-02-03T11:01:58.942Z,100998.81
2023-02-03T11:04:29.883Z,100998.00
2023-02-03T11:07:01.507Z,100988.50
2023-02-03T11:09:33.323Z,101005.72
2023-02-03T11:12:09.654Z,101009.13
2023-02-03T11:14:38.882Z,100993.66
2023-02-03T11:17:09.053Z,100994.56
2023-02-03T11:19:39.229Z,100992.81
2023-02-03T11:22:07.426Z,100997.03
2023-02-03T11:24:39.662Z,100995.38
2023-02-03T11:27:10.701Z,100994.47
2023-02-03T11:29:40.152Z,101009.91
2023-02-03T11:32:17.161Z,101012.50
2023-02-03T11:34:55.126Z,101011.72
2023-02-03T11:37:29.514Z,101004.13
2023-02-03T11:39:58.303Z,101016.09
2023-02-03T11:42:26.616Z,101023.81
2023-02-03T11:45:10.895Z,101035.84
2023-02-03T11:47:39.117Z,101023.88
2023-02-03T11:50:27.624Z,101005.03
2023-02-03T11:53:11.095Z,101014.59
2023-02-03T11:55:49.756Z,100994.88
2023-02-03T11:58:58.446Z,101001.88
2023-02-03T12:01:46.672Z,101002.81
2023-02-03T12:04:26.995Z,100988.19
2023-02-03T12:07:14.891Z,100970.09
2023-02-03T12:09:49.628Z,100973.50
2023-02-03T12:12:35.296Z,100966.56
2023-02-03T12:15:15.976Z,100964.03
2023-02-03T12:17:53.600Z,100965.69
2023-02-03T12:20:44.711Z,100949.41
2023-02-03T12:23:23.975Z,100953.81
2023-02-03T12:26:06.361Z,100971.78
2023-02-03T12:28:46.090Z,100954.63
2023-02-03T12:31:18.272Z,100954.63
2023-02-03T12:33:49.779Z,100952.09
2023-02-03T12:36:22.152Z,100951.34
2023-02-03T12:38:55.288Z,100942.50
2023-02-03T12:41:26.403Z,100933.88
2023-02-03T12:43:56.996Z,100938.09
2023-02-03T12:46:27.282Z,100935.47
2023-02-03T12:48:58.937Z,100932.03
2023-02-03T12:51:35.454Z,100933.69
2023-02-03T12:54:07.778Z,100930.25
2023-02-03T12:56:40.830Z,100921.63
2023-02-03T12:59:15.970Z,100913.97
2023-02-03T13:01:47.598Z,100902.75
2023-02-03T13:04:22.095Z,100911.28
2023-02-03T13:06:53.937Z,100916.44
2023-02-03T13:09:30.914Z,100903.53
2023-02-03T13:12:04.367Z,100908.69
2023-02-03T13:14:35.727Z,100909.53
2023-02-03T13:17:08.157Z,100912.94
2023-02-03T13:19:41.760Z,100918.06
2023-02-03T13:22:12.883Z,100913.72
2023-02-03T13:24:42.619Z,100915.44
2023-02-03T13:27:29.439Z,100924.06
2023-02-03T13:30:21.207Z,100922.31
2023-02-03T13:33:40.923Z,100926.63
2023-02-03T13:36:22.295Z,100906.91
2023-02-03T13:39:16.293Z,100895.72
2023-02-03T13:41:49.955Z,100887.28
2023-02-03T13:44:20.490Z,100895.78
2023-02-03T13:46:49.454Z,100871.00
2023-02-03T13:49:23.709Z,100883.84
2023-02-03T13:51:51.873Z,100880.47
2023-02-03T13:54:28.862Z,100865.13
2023-02-03T13:57:01.340Z,100883.91
2023-02-03T13:59:40.758Z,100883.13
2023-02-03T14:02:40.328Z,100896.03
2023-02-03T14:05:11.301Z,100904.63
2023-02-03T14:07:40.402Z,100890.09
2023-02-03T14:10:23.365Z,100892.66
2023-02-03T14:13:00.239Z,100903.81
2023-02-03T14:15:34.539Z,100902.97
2023-02-03T14:18:32.093Z,100897.78
2023-02-03T14:21:21.953Z,100895.22
2023-02-03T14:24:09.638Z,100889.13
2023-02-03T14:26:41.449Z,100896.84
2023-02-03T14:29:12.501Z,100882.22
2023-02-03T14:31:59.128Z,100901.94
2023-02-03T14:34:38.242Z,100906.25
2023-02-03T14:37:20.837Z,100891.63
2023-02-03T14:40:28.817Z,100873.56
2023-02-03T14:43:21.304Z,100887.28
2023-02-03T14:46:38.281Z,100878.69
2023-02-03T14:49:24.841Z,100888.06
2023-02-03T14:52:08.340Z,100880.47
2023-02-03T14:54:50.998Z,100886.44
2023-02-03T14:57:30.316Z,100887.28
2023-02-03T15:00:00.475Z,100908.66
2023-02-03T15:02:31.227Z,100907.81
2023-02-03T15:05:36.868Z,100890.63
2023-02-03T15:08:05.492Z,100904.38
2023-02-03T15:10:43.254Z,100901.81
2023-02-03T15:13:27.356Z,100894.91
2023-02-03T15:15:56.787Z,100906.09
2023-02-03T15:18:30.865Z,100889.81
2023-02-03T15:20:59.586Z,100888.91
2023-02-03T15:23:31.153Z,100889.75
2023-02-03T15:26:01.507Z,100882.91
2023-02-03T15:28:31.009Z,100881.31
2023-02-03T15:31:02.411Z,100890.78
2023-02-03T15:33:32.620Z,100903.66
2023-02-03T15:36:02.884Z,100913.06
2023-02-03T15:38:35.678Z,100917.38
2023-02-03T15:41:03.843Z,100914.84
2023-02-03T15:43:33.750Z,100919.16
2023-02-03T15:46:07.361Z,100908.81
2023-02-03T15:48:40.175Z,100920.00
2023-02-03T15:51:11.561Z,100926.03
2023-02-03T15:53:47.968Z,100925.16
2023-02-03T15:56:26.253Z,100926.06
2023-02-03T15:58:54.492Z,100926.97
2023-02-03T16:01:26.099Z,100929.53
2023-02-03T16:03:56.473Z,100933.78
2023-02-03T16:06:27.482Z,100940.63
2023-02-03T16:08:56.343Z,100930.28
2023-02-03T16:11:34.120Z,100925.16
2023-02-03T16:14:04.576Z,100924.38
2023-02-03T16:16:37.527Z,100934.63
2023-02-03T16:19:13.197Z,100937.19
2023-02-03T16:21:53.429Z,100933.88
2023-02-03T16:24:40.291Z,100947.56
2023-02-03T16:27:22.929Z,100954.41
2023-02-03T16:30:08.830Z,100950.94
2023-02-03T16:32:54.862Z,100963.03
2023-02-03T16:35:42.443Z,100963.03
2023-02-03T16:38:33.681Z,100954.50
2023-02-03T16:41:19.844Z,100952.88
2023-02-03T16:44:05.705Z,100962.28
2023-02-03T16:46:51.824Z,100958.03
2023-02-03T16:49:37.872Z,100961.44
2023-02-03T16:52:08.663Z,100961.47
2023-02-03T16:54:37.302Z,100962.34
2023-02-03T16:57:05.927Z,100963.19
2023-02-03T16:59:35.238Z,100967.44
2023-02-03T17:02:03.495Z,100970.03
2023-02-03T17:04:31.722Z,100970.03
2023-02-03T17:07:00.317Z,100970.84
2023-02-03T17:09:32.203Z,100970.00
2023-02-03T17:12:00.393Z,100970.84
2023-02-03T17:14:28.948Z,100978.66
2023-02-03T17:16:57.175Z,100968.34
2023-02-03T17:19:25.249Z,100968.41
2023-02-03T17:21:53.347Z,100981.34
2023-02-03T17:24:21.461Z,100981.38
2023-02-03T17:26:52.595Z,100978.78
2023-02-03T17:29:20.774Z,100970.25
2023-02-03T17:31:48.910Z,100967.66
2023-02-03T17:34:17.107Z,100976.25
2023-02-03T17:36:45.230Z,100975.34
2023-02-03T17:55:31.701Z,100991.00
2023-02-03T17:58:01.367Z,100994.47
2023-02-03T18:00:29.761Z,100998.78
2023-02-03T18:02:58.083Z,101003.94
2023-02-03T18:05:26.263Z,101001.38
2023-02-03T18:07:54.354Z,101005.69
2023-02-03T18:10:22.739Z,100997.97
2023-02-03T18:12:50.935Z,101004.78
2023-02-03T18:15:20.449Z,100996.22
2023-02-03T18:17:48.611Z,100994.47
2023-02-03T18:20:17.025Z,100997.03
2023-02-03T18:22:45.631Z,100999.63
2023-02-03T18:25:17.081Z,101001.38
2023-02-03T18:27:45.317Z,100992.75
2023-02-03T18:30:15.301Z,100998.78
2023-02-03T18:32:45.098Z,100989.31
2023-02-03T18:35:16.740Z,100997.88
2023-02-03T18:37:44.926Z,100985.94
2023-02-03T18:40:13.360Z,100985.94
2023-02-03T18:42:41.516Z,100990.13
2023-02-03T18:45:11.219Z,100986.66
2023-02-03T18:47:39.373Z,100996.97
2023-02-03T18:50:09.872Z,100998.69
2023-02-03T18:52:38.708Z,100996.94
2023-02-03T18:55:07.929Z,100999.50
2023-02-03T18:57:36.100Z,101000.31
2023-02-03T19:00:06.212Z,101011.44
2023-02-03T19:02:35.023Z,101010.63
2023-02-03T19:05:04.191Z,101011.47
2023-02-03T19:07:33.761Z,101002.88
2023-02-03T19:10:01.896Z,101002.81
2023-02-03T19:12:30.046Z,101024.31
2023-02-03T19:14:58.189Z,101027.69
2023-02-03T19:17:26.310Z,101035.41
2023-02-03T19:19:54.409Z,101042.28
2023-02-03T19:22:22.523Z,101047.44
2023-02-03T19:24:51.984Z,101053.41
2023-02-03T19:27:20.088Z,101051.66
2023-02-03T19:29:48.159Z,101058.56
2023-02-03T19:32:16.347Z,101054.28
2023-02-03T19:34:44.521Z,101053.44
2023-02-03T19:37:13.072Z,101056.94
2023-02-03T19:39:41.326Z,101057.81
2023-02-03T19:42:11.719Z,101063.03
2023-02-03T19:44:39.948Z,101058.78
2023-02-03T19:47:08.109Z,101069.13
2023-02-03T19:49:36.256Z,101070.06
2023-02-03T19:52:05.257Z,101081.25
2023-02-03T19:54:33.423Z,101077.00
2023-02-03T19:57:01.847Z,101083.94
2023-02-03T19:59:31.358Z,101083.13
2023-02-03T20:02:04.060Z,101085.63
2023-02-03T20:04:37.724Z,101080.56
2023-02-03T20:07:05.865Z,101078.06
2023-02-03T20:09:33.991Z,101078.94
2023-02-03T20:12:02.116Z,101080.75
2023-02-03T20:14:32.583Z,101081.59
2023-02-03T20:17:00.757Z,101075.63
2023-02-03T20:19:28.974Z,101085.13
2023-02-03T20:21:57.314Z,101094.59
2023-02-03T20:24:25.542Z,101106.66
2023-02-03T20:26:53.684Z,101113.59
2023-02-03T20:29:21.796Z,101122.19
2023-02-03T20:31:53.062Z,101126.50
2023-02-03T20:34:21.326Z,101123.09
2023-02-03T20:36:49.535Z,101127.34
2023-02-03T20:39:19.233Z,101127.34
2023-02-03T20:41:49.600Z,101132.50
2023-02-03T20:44:18.228Z,101141.13
2023-02-03T20:46:46.554Z,101132.50
2023-02-03T20:49:17.591Z,101129.94
2023-02-03T20:51:45.736Z,101130.00
2023-02-03T20:54:17.448Z,101118.88
2023-02-03T20:56:45.756Z,101132.63
2023-02-03T20:59:14.175Z,101126.72
2023-02-03T21:01:42.493Z,101124.13
2023-02-03T21:04:34.316Z,101128.34
2023-02-03T21:07:02.534Z,101142.91
2023-02-03T21:09:30.717Z,101128.34
2023-02-03T21:11:58.877Z,101135.19
2023-02-03T21:14:30.565Z,101130.84
2023-02-03T21:16:58.752Z,101136.84
2023-02-03T21:19:32.741Z,101125.66
2023-02-03T21:22:00.971Z,101135.91
2023-02-03T21:24:30.554Z,101127.34
2023-02-03T21:26:58.867Z,101123.91
2023-02-03T21:29:27.882Z,101126.44
2023-02-03T21:31:56.179Z,101127.22
2023-02-03T21:34:30.550Z,101139.22
2023-02-03T21:36:59.081Z,101137.47
2023-02-03T21:39:29.322Z,101128.00
2023-02-03T21:41:57.839Z,101125.47
2023-02-03T21:44:31.048Z,101122.06
2023-02-03T21:46:59.798Z,101110.88
2023-02-03T21:49:29.084Z,101115.16
2023-02-03T21:51:58.832Z,101110.88
2023-02-03T21:54:30.158Z,101114.34
2023-02-03T21:56:58.578Z,101116.94
2023-02-03T21:59:29.895Z,101108.38
2023-02-03T22:01:58.634Z,101115.25
2023-02-03T22:04:27.302Z,101126.44
2023-02-03T22:06:55.801Z,101144.44
2023-02-03T22:09:26.388Z,101150.41
2023-02-03T22:11:54.650Z,101161.53
2023-02-03T22:14:22.848Z,101158.06
2023-02-03T22:16:51.012Z,101168.34
2023-02-03T22:19:19.136Z,101164.88
2023-02-03T22:21:48.508Z,101169.13
2023-02-03T22:24:16.664Z,101172.56
2023-02-03T22:26:46.215Z,101159.72
2023-02-03T22:29:14.359Z,101170.03
2023-02-03T22:31:42.709Z,101173.50
2023-02-03T22:34:11.025Z,101178.63
2023-02-03T22:36:39.250Z,101182.88
2023-02-03T22:39:07.367Z,101181.16
2023-02-03T22:41:35.470Z,101184.63
2023-02-03T22:44:05.274Z,101192.28
2023-02-03T22:46:33.432Z,101192.16
2023-02-03T22:49:02.192Z,101196.31
2023-02-03T22:51:30.295Z,101194.50
2023-02-03T22:53:58.330Z,101207.38
2023-02-03T22:56:26.529Z,101199.72
2023-02-03T22:58:54.636Z,101202.31
2023-02-03T23:01:24.072Z,101204.03
2023-02-03T23:03:52.310Z,101205.72
2023-02-03T23:06:20.446Z,101220.25
2023-02-03T23:08:48.528Z,101215.94
2023-02-03T23:11:16.703Z,101226.22
2023-02-03T23:13:44.824Z,101226.16
2023-02-03T23:16:13.054Z,101221.81
2023-02-03T23:18:42.609Z,101216.63
2023-02-03T23:21:10.741Z,101214.88
2023-02-03T23:23:38.883Z,101221.63
2023-02-03T23:26:07.197Z,101206.97
2023-02-03T23:28:35.356Z,101206.97
2023-02-03T23:31:04.036Z,101208.69
2023-02-03T23:33:32.277Z,101212.09
2023-02-03T23:36:00.751Z,101226.66
2023-02-03T23:38:28.917Z,101227.47
2023-02-03T23:40:57.082Z,101220.56
2023-02-03T23:43:25.273Z,101224.03
2023-02-03T23:45:53.386Z,101228.38
2023-02-03T23:48:21.523Z,101233.59
2023-02-03T23:50:50.050Z,101225.06
2023-02-03T23:53:19.509Z,101231.19
2023-02-03T23:55:47.621Z,101228.72
2023-02-03T23:58:15.758Z,101232.28
